sensor_id;sensor_type;location;lat;lon;timestamp;pressure;altitude;pressure_sealevel;temperature;humidity
45937;BME280;31649;46.510;6.498;2023-04-26T07:03:01;95369.91;;;7.81;55.38
45937;BME280;31649;46.510;6.498;2023-04-26T07:05:27;95373.53;;;7.88;55.10
45937;BME280;31649;46.510;6.498;2023-04-26T07:07:52;95372.25;;;8.03;54.88
45937;BME280;31649;46.510;6.498;2023-04-26T07:10:18;95373.31;;;8.10;54.71
45937;BME280;31649;46.510;6.498;2023-04-26T07:12:45;95376.56;;;8.12;54.83
45937;BME280;31649;46.510;6.498;2023-04-26T07:15:11;95374.50;;;8.16;54.85
45937;BME280;31649;46.510;6.498;2023-04-26T07:17:37;95368.38;;;8.17;55.16
45937;BME280;31649;46.510;6.498;2023-04-26T07:20:02;95375.91;;;8.10;55.17
45937;BME280;31649;46.510;6.498;2023-04-26T07:22:28;95369.47;;;8.14;55.25
45937;BME280;31649;46.510;6.498;2023-04-26T07:24:54;95368.72;;;8.22;55.40
45937;BME280;31649;46.510;6.498;2023-04-26T07:27:19;95372.53;;;8.28;55.25
45937;BME280;31649;46.510;6.498;2023-04-26T07:29:45;95374.69;;;8.32;55.33
45937;BME280;31649;46.510;6.498;2023-04-26T07:32:11;95381.50;;;8.33;55.50
45937;BME280;31649;46.510;6.498;2023-04-26T07:34:37;95374.25;;;8.37;55.32
45937;BME280;31649;46.510;6.498;2023-04-26T07:37:04;95376.56;;;8.40;55.39
45937;BME280;31649;46.510;6.498;2023-04-26T07:39:31;95382.25;;;8.44;55.37
45937;BME280;31649;46.510;6.498;2023-04-26T07:41:57;95385.38;;;8.47;55.40
45937;BME280;31649;46.510;6.498;2023-04-26T07:44:22;95384.13;;;8.52;55.45
45937;BME280;31649;46.510;6.498;2023-04-26T07:46:48;95380.56;;;8.53;55.77
45937;BME280;31649;46.510;6.498;2023-04-26T07:49:13;95389.72;;;8.57;55.62
45937;BME280;31649;46.510;6.498;2023-04-26T07:51:43;95386.53;;;8.63;55.36
45937;BME280;31649;46.510;6.498;2023-04-26T07:54:08;95383.19;;;8.71;55.11
45937;BME280;31649;46.510;6.498;2023-04-26T07:56:33;95386.06;;;8.68;55.26
45937;BME280;31649;46.510;6.498;2023-04-26T07:58:59;95384.63;;;8.65;55.07
45937;BME280;31649;46.510;6.498;2023-04-26T08:01:24;95386.91;;;8.68;54.99
45937;BME280;31649;46.510;6.498;2023-04-26T08:03:50;95388.38;;;8.71;55.08
45937;BME280;31649;46.510;6.498;2023-04-26T08:06:15;95388.66;;;8.68;54.84
45937;BME280;31649;46.510;6.498;2023-04-26T08:08:41;95375.41;;;8.71;55.20
45937;BME280;31649;46.510;6.498;2023-04-26T08:11:10;95387.41;;;8.72;55.14
45937;BME280;31649;46.510;6.498;2023-04-26T08:13:36;95392.75;;;8.70;54.73
45937;BME280;31649;46.510;6.498;2023-04-26T08:16:01;95390.47;;;8.67;54.46
45937;BME280;31649;46.510;6.498;2023-04-26T08:18:27;95385.94;;;8.69;54.84
45937;BME280;31649;46.510;6.498;2023-04-26T08:20:52;95387.41;;;8.72;54.61
45937;BME280;31649;46.510;6.498;2023-04-26T08:23:21;95391.66;;;8.73;54.77
45937;BME280;31649;46.510;6.498;2023-04-26T08:25:47;95391.88;;;8.80;54.94
45937;BME280;31649;46.510;6.498;2023-04-26T08:28:14;95389.94;;;8.82;54.87
45937;BME280;31649;46.510;6.498;2023-04-26T08:30:40;95396.31;;;8.88;54.52
45937;BME280;31649;46.510;6.498;2023-04-26T08:33:05;95388.53;;;8.88;53.82
45937;BME280;31649;46.510;6.498;2023-04-26T08:35:31;95395.88;;;8.92;54.48
45937;BME280;31649;46.510;6.498;2023-04-26T08:37:56;95398.97;;;8.96;54.39
45937;BME280;31649;46.510;6.498;2023-04-26T08:40:23;95402.91;;;9.00;54.68
45937;BME280;31649;46.510;6.498;2023-04-26T08:42:49;95403.34;;;8.96;53.86
45937;BME280;31649;46.510;6.498;2023-04-26T08:45:17;95404.84;;;8.98;54.15
45937;BME280;31649;46.510;6.498;2023-04-26T08:47:44;95414.84;;;8.93;54.13
45937;BME280;31649;46.510;6.498;2023-04-26T08:50:13;95411.44;;;8.92;53.87
45937;BME280;31649;46.510;6.498;2023-04-26T08:52:40;95409.63;;;8.93;54.24
45937;BME280;31649;46.510;6.498;2023-04-26T08:55:09;95403.50;;;8.94;53.63
45937;BME280;31649;46.510;6.498;2023-04-26T08:57:37;95409.50;;;8.94;53.63
45937;BME280;31649;46.510;6.498;2023-04-26T09:00:05;95413.72;;;8.96;53.55
45937;BME280;31649;46.510;6.498;2023-04-26T09:02:41;95402.53;;;8.95;54.14
45937;BME280;31649;46.510;6.498;2023-04-26T09:05:10;95403.19;;;8.97;53.32
45937;BME280;31649;46.510;6.498;2023-04-26T09:07:46;95398.81;;;8.98;53.54
45937;BME280;31649;46.510;6.498;2023-04-26T09:10:17;95398.97;;;8.96;53.58
45937;BME280;31649;46.510;6.498;2023-04-26T09:12:52;95404.00;;;8.98;53.67
45937;BME280;31649;46.510;6.498;2023-04-26T09:15:20;95396.53;;;8.94;53.15
45937;BME280;31649;46.510;6.498;2023-04-26T09:17:47;95405.78;;;8.97;53.84
45937;BME280;31649;46.510;6.498;2023-04-26T09:20:25;95404.44;;;8.93;53.39
45937;BME280;31649;46.510;6.498;2023-04-26T09:22:53;95404.59;;;8.91;53.86
45937;BME280;31649;46.510;6.498;2023-04-26T09:25:29;95407.34;;;8.90;53.18
45937;BME280;31649;46.510;6.498;2023-04-26T09:27:56;95414.72;;;8.94;53.52
45937;BME280;31649;46.510;6.498;2023-04-26T09:30:22;95420.69;;;8.95;53.18
45937;BME280;31649;46.510;6.498;2023-04-26T09:37:55;95418.69;;;9.07;53.26
45937;BME280;31649;46.510;6.498;2023-04-26T09:40:22;95416.09;;;9.07;53.33
45937;BME280;31649;46.510;6.498;2023-04-26T09:43:12;95420.97;;;9.10;53.59
45937;BME280;31649;46.510;6.498;2023-04-26T09:45:57;95411.72;;;9.08;53.16
45937;BME280;31649;46.510;6.498;2023-04-26T09:48:27;95401.03;;;9.11;53.37
45937;BME280;31649;46.510;6.498;2023-04-26T09:50:56;95399.28;;;9.11;53.16
45937;BME280;31649;46.510;6.498;2023-04-26T09:53:37;95403.47;;;9.12;53.10
45937;BME280;31649;46.510;6.498;2023-04-26T09:56:08;95399.78;;;9.15;53.18
45937;BME280;31649;46.510;6.498;2023-04-26T09:58:36;95397.84;;;9.17;53.12
45937;BME280;31649;46.510;6.498;2023-04-26T10:01:03;95401.63;;;9.23;53.50
45937;BME280;31649;46.510;6.498;2023-04-26T10:03:29;95398.88;;;9.24;53.52
45937;BME280;31649;46.510;6.498;2023-04-26T10:05:57;95389.03;;;9.28;53.67
45937;BME280;31649;46.510;6.498;2023-04-26T10:08:22;95387.09;;;9.30;53.44
45937;BME280;31649;46.510;6.498;2023-04-26T10:10:48;95381.72;;;9.32;53.63
45937;BME280;31649;46.510;6.498;2023-04-26T10:13:15;95380.91;;;9.31;53.36
45937;BME280;31649;46.510;6.498;2023-04-26T10:15:42;95387.16;;;9.38;53.33
45937;BME280;31649;46.510;6.498;2023-04-26T10:18:08;95386.47;;;9.36;53.61
45937;BME280;31649;46.510;6.498;2023-04-26T10:20:39;95390.53;;;9.39;53.65
45937;BME280;31649;46.510;6.498;2023-04-26T10:23:12;95393.28;;;9.37;53.35
45937;BME280;31649;46.510;6.498;2023-04-26T10:25:41;95388.91;;;9.38;52.72
45937;BME280;31649;46.510;6.498;2023-04-26T10:28:07;95391.19;;;9.41;53.36
45937;BME280;31649;46.510;6.498;2023-04-26T10:30:53;95399.66;;;9.43;52.97
45937;BME280;31649;46.510;6.498;2023-04-26T10:33:19;95395.78;;;9.47;53.04
45937;BME280;31649;46.510;6.498;2023-04-26T10:36:12;95395.00;;;9.47;52.10
45937;BME280;31649;46.510;6.498;2023-04-26T10:39:16;95402.91;;;9.45;51.76
45937;BME280;31649;46.510;6.498;2023-04-26T10:41:28;95402.78;;;9.47;52.27
45937;BME280;31649;46.510;6.498;2023-04-26T10:43:55;95396.59;;;9.48;51.86
45937;BME280;31649;46.510;6.498;2023-04-26T10:46:35;95393.19;;;9.47;52.55
45937;BME280;31649;46.510;6.498;2023-04-26T10:49:14;95397.25;;;9.50;52.21
45937;BME280;31649;46.510;6.498;2023-04-26T10:54:59;95395.66;;;9.49;51.84
45937;BME280;31649;46.510;6.498;2023-04-26T10:57:47;95394.16;;;9.46;51.67
45937;BME280;31649;46.510;6.498;2023-04-26T11:00:27;95390.59;;;9.47;51.80
45937;BME280;31649;46.510;6.498;2023-04-26T11:05:52;95379.91;;;9.50;51.93
45937;BME280;31649;46.510;6.498;2023-04-26T11:10:56;95384.13;;;9.51;52.21
45937;BME280;31649;46.510;6.498;2023-04-26T11:13:22;95389.19;;;9.53;52.14
45937;BME280;31649;46.510;6.498;2023-04-26T11:15:58;95374.56;;;9.52;52.37
45937;BME280;31649;46.510;6.498;2023-04-26T11:18:24;95384.00;;;9.53;52.10
45937;BME280;31649;46.510;6.498;2023-04-26T11:20:50;95388.03;;;9.56;52.50
45937;BME280;31649;46.510;6.498;2023-04-26T11:23:17;95384.78;;;9.54;52.47
45937;BME280;31649;46.510;6.498;2023-04-26T11:25:43;95379.09;;;9.50;51.82
45937;BME280;31649;46.510;6.498;2023-04-26T11:28:08;95385.91;;;9.51;51.57
45937;BME280;31649;46.510;6.498;2023-04-26T11:30:34;95383.31;;;9.51;51.80
45937;BME280;31649;46.510;6.498;2023-04-26T11:33:01;95378.25;;;9.49;52.20
45937;BME280;31649;46.510;6.498;2023-04-26T11:35:28;95386.22;;;9.48;51.58
45937;BME280;31649;46.510;6.498;2023-04-26T11:37:57;95384.28;;;9.50;52.36
45937;BME280;31649;46.510;6.498;2023-04-26T11:40:27;95385.25;;;9.49;50.92
45937;BME280;31649;46.510;6.498;2023-04-26T11:42:53;95389.97;;;9.54;51.86
45937;BME280;31649;46.510;6.498;2023-04-26T11:45:18;95383.00;;;9.54;51.34
45937;BME280;31649;46.510;6.498;2023-04-26T11:47:45;95388.03;;;9.56;51.59
45937;BME280;31649;46.510;6.498;2023-04-26T11:50:12;95392.63;;;9.62;52.35
45937;BME280;31649;46.510;6.498;2023-04-26T11:52:38;95394.25;;;9.63;51.78
45937;BME280;31649;46.510;6.498;2023-04-26T11:55:05;95389.72;;;9.65;51.81
45937;BME280;31649;46.510;6.498;2023-04-26T11:57:33;95392.66;;;9.70;51.26
45937;BME280;31649;46.510;6.498;2023-04-26T12:00:10;95390.72;;;9.72;51.76
45937;BME280;31649;46.510;6.498;2023-04-26T12:02:36;95388.78;;;9.74;51.47
45937;BME280;31649;46.510;6.498;2023-04-26T12:05:01;95390.44;;;9.75;51.12
45937;BME280;31649;46.510;6.498;2023-04-26T12:07:37;95391.59;;;9.81;51.90
45937;BME280;31649;46.510;6.498;2023-04-26T12:10:18;95387.44;;;9.89;51.53
45937;BME280;31649;46.510;6.498;2023-04-26T12:12:49;95386.94;;;9.93;50.94
45937;BME280;31649;46.510;6.498;2023-04-26T12:15:21;95386.44;;;9.90;51.62
45937;BME280;31649;46.510;6.498;2023-04-26T12:17:51;95386.34;;;9.73;50.72
45937;BME280;31649;46.510;6.498;2023-04-26T12:20:17;95386.97;;;9.67;49.45
45937;BME280;31649;46.510;6.498;2023-04-26T12:23:12;95394.31;;;9.71;50.38
45937;BME280;31649;46.510;6.498;2023-04-26T12:25:40;95389.13;;;9.71;50.19
45937;BME280;31649;46.510;6.498;2023-04-26T12:28:10;95391.16;;;9.59;50.69
